createdAt,value
2018-04-16T00:00:58.038Z,41.70
2018-04-16T00:06:01.341Z,41.70
2018-04-16T00:11:04.648Z,41.70
2018-04-16T00:16:07.202Z,41.70
2018-04-16T00:21:09.958Z,41.70
2018-04-16T00:26:12.531Z,41.70
2018-04-16T00:31:15.087Z,41.70
2018-04-16T00:36:33.439Z,41.70
2018-04-16T00:41:41.538Z,41.70
2018-04-16T00:46:50.452Z,41.70
2018-04-16T00:51:58.858Z,41.70
2018-04-16T00:57:07.094Z,41.70
2018-04-16T01:02:15.274Z,41.70
2018-04-16T01:07:23.423Z,41.70
2018-04-16T01:12:31.714Z,41.70
2018-04-16T01:17:40.735Z,41.70
2018-04-16T01:22:49.338Z,41.70
2018-04-16T01:27:57.597Z,41.70
2018-04-16T01:33:05.790Z,41.70
2018-04-16T01:38:23.168Z,41.70
2018-04-16T01:43:31.426Z,41.70
2018-04-16T01:48:39.564Z,41.70
2018-04-16T01:53:47.945Z,41.80
2018-04-16T01:58:56.269Z,41.80
2018-04-16T02:04:04.760Z,41.70
2018-04-16T02:09:12.875Z,41.70
2018-04-16T02:14:21.075Z,41.80
2018-04-16T02:19:29.389Z,41.70
2018-04-16T02:24:37.660Z,41.70
2018-04-16T02:29:45.918Z,41.60
2018-04-16T02:34:54.285Z,41.70
2018-04-16T02:40:02.545Z,41.70
2018-04-16T02:45:10.623Z,41.70
2018-04-16T02:50:18.817Z,41.60
2018-04-16T02:55:26.989Z,41.70
2018-04-16T03:00:35.093Z,41.70
2018-04-16T03:05:43.571Z,41.70
2018-04-16T03:10:51.665Z,41.70
2018-04-16T03:15:59.793Z,41.70
2018-04-16T03:21:08.012Z,41.60
2018-04-16T03:26:16.510Z,41.70
2018-04-16T03:31:24.714Z,41.70
2018-04-16T03:36:32.864Z,41.70
2018-04-16T03:41:41.060Z,41.70
2018-04-16T03:46:50.066Z,42.00
2018-04-16T03:51:56.372Z,41.70
2018-04-16T03:56:58.866Z,41.70
2018-04-16T04:02:01.948Z,41.70
2018-04-16T04:07:04.448Z,41.70
2018-04-16T04:12:06.970Z,41.70
2018-04-16T04:17:10.256Z,41.70
2018-04-16T04:22:12.747Z,41.60
2018-04-16T04:27:27.268Z,41.70
2018-04-16T04:32:31.540Z,41.70
2018-04-16T04:37:34.047Z,41.60
2018-04-16T04:42:36.785Z,41.70
2018-04-16T04:47:39.287Z,41.60
2018-04-16T04:52:42.546Z,41.70
2018-04-16T04:57:45.051Z,41.70
2018-04-16T05:02:47.574Z,41.60
2018-04-16T05:07:50.219Z,41.70
2018-04-16T05:12:52.764Z,41.70
2018-04-16T05:17:56.138Z,41.60
2018-04-16T05:22:58.717Z,41.60
2018-04-16T05:28:01.213Z,41.70
2018-04-16T05:33:03.738Z,41.60
2018-04-16T05:38:06.233Z,41.70
2018-04-16T05:43:09.717Z,41.60
2018-04-16T05:48:12.301Z,41.60
2018-04-16T05:53:14.881Z,41.60
2018-04-16T05:58:17.430Z,41.60
2018-04-16T06:03:20.487Z,41.60
2018-04-16T06:08:23.016Z,42.30
2018-04-16T06:13:25.533Z,41.60
2018-04-16T06:18:28.075Z,41.50
2018-04-16T06:23:30.641Z,41.60
2018-04-16T06:28:33.190Z,41.60
2018-04-16T06:33:35.804Z,41.70
2018-04-16T06:38:38.315Z,41.70
2018-04-16T06:43:40.849Z,41.60
2018-04-16T06:48:44.255Z,41.70
2018-04-16T06:53:46.839Z,41.60
2018-04-16T06:58:49.367Z,41.70
2018-04-16T07:03:51.872Z,41.60
2018-04-16T07:08:55.254Z,41.60
2018-04-16T07:13:57.929Z,41.60
2018-04-16T07:19:00.476Z,41.60
2018-04-16T07:24:03.208Z,41.60
2018-04-16T07:29:05.822Z,41.70
2018-04-16T07:34:08.432Z,41.60
2018-04-16T07:39:10.938Z,41.60
2018-04-16T07:44:14.493Z,41.70
2018-04-16T07:49:18.724Z,41.60
2018-04-16T07:54:21.308Z,41.60
2018-04-16T07:59:23.858Z,41.50
2018-04-16T08:04:26.740Z,41.60
2018-04-16T08:09:30.872Z,41.60
2018-04-16T08:14:34.184Z,41.50
2018-04-16T08:19:37.100Z,41.50
2018-04-16T08:24:39.646Z,41.50
2018-04-16T08:29:42.218Z,41.50
2018-04-16T08:34:44.865Z,41.60
2018-04-16T08:39:48.159Z,41.50
2018-04-16T08:44:50.697Z,41.50
2018-04-16T08:49:53.988Z,41.60
2018-04-16T08:54:57.287Z,41.60
2018-04-16T09:00:00.627Z,41.60
2018-04-16T09:05:03.650Z,41.50
2018-04-16T09:10:06.337Z,42.00
2018-04-16T09:15:09.607Z,41.50
2018-04-16T09:20:12.863Z,41.50
2018-04-16T09:25:15.484Z,41.50
2018-04-16T09:30:18.050Z,41.50
2018-04-16T09:35:20.588Z,41.40
2018-04-16T09:40:23.181Z,41.40
2018-04-16T09:45:25.926Z,41.40
2018-04-16T09:50:28.571Z,41.40
2018-04-16T09:55:31.280Z,41.30
2018-04-16T10:00:40.555Z,41.40
2018-04-16T10:05:43.867Z,41.40
2018-04-16T10:10:47.387Z,41.90
2018-04-16T10:15:50.657Z,41.30
2018-04-16T10:20:53.318Z,41.30
2018-04-16T10:25:55.858Z,41.30
2018-04-16T10:30:59.509Z,41.30
2018-04-16T10:36:02.264Z,41.30
2018-04-16T10:41:05.159Z,41.30
2018-04-16T10:46:07.647Z,41.40
2018-04-16T10:51:10.257Z,41.30
2018-04-16T10:56:12.773Z,41.30
2018-04-16T11:01:15.285Z,41.30
2018-04-16T11:06:18.550Z,41.30
2018-04-16T11:11:21.066Z,41.20
2018-04-16T11:16:23.596Z,41.30
2018-04-16T11:21:26.923Z,41.40
2018-04-16T11:26:29.618Z,41.30
2018-04-16T11:31:32.948Z,41.30
2018-04-16T11:36:36.432Z,41.30
2018-04-16T11:41:40.050Z,41.30
2018-04-16T11:46:42.733Z,41.30
2018-04-16T11:51:45.400Z,41.30
2018-04-16T11:56:48.621Z,41.30
2018-04-16T12:01:51.213Z,41.20
2018-04-16T12:06:53.765Z,41.20
2018-04-16T12:11:56.244Z,41.20
2018-04-16T12:16:58.822Z,41.30
2018-04-16T12:22:02.210Z,41.90
2018-04-16T12:27:04.938Z,41.30
2018-04-16T12:32:25.720Z,41.40
2018-04-16T12:37:28.301Z,41.30
2018-04-16T12:42:30.868Z,41.30
2018-04-16T12:47:39.184Z,41.30
2018-04-16T12:52:41.873Z,41.30
2018-04-16T12:57:51.232Z,41.70
2018-04-16T13:03:05.438Z,41.30
2018-04-16T13:08:07.981Z,41.30
2018-04-16T13:13:10.554Z,41.30
2018-04-16T13:18:13.284Z,41.30
2018-04-16T13:23:15.950Z,41.30
2018-04-16T13:28:18.507Z,41.30
2018-04-16T13:33:26.744Z,41.30
2018-04-16T13:38:29.283Z,41.30
2018-04-16T13:43:31.988Z,41.40
2018-04-16T13:48:34.565Z,41.30
2018-04-16T13:53:37.109Z,41.40
2018-04-16T13:58:39.658Z,41.30
2018-04-16T14:03:42.214Z,41.30
2018-04-16T14:08:44.876Z,41.30
2018-04-16T14:13:47.435Z,41.30
2018-04-16T14:18:55.783Z,41.30
2018-04-16T14:23:58.300Z,41.40
2018-04-16T14:29:02.100Z,41.50
2018-04-16T14:34:04.654Z,41.30
2018-04-16T14:39:19.079Z,42.10
2018-04-16T14:44:21.608Z,41.50
2018-04-16T14:49:24.167Z,41.60
2018-04-16T14:54:27.293Z,41.50
2018-04-16T14:59:29.821Z,41.50
2018-04-16T15:04:44.040Z,41.50
2018-04-16T15:09:53.490Z,41.70
2018-04-16T15:15:01.936Z,41.60
2018-04-16T15:20:04.476Z,41.60
2018-04-16T15:25:07.439Z,41.70
2018-04-16T15:30:10.029Z,41.70
2018-04-16T15:35:13.430Z,41.80
2018-04-16T15:40:15.988Z,41.70
2018-04-16T15:45:18.522Z,41.80
2018-04-16T15:50:21.994Z,41.80
2018-04-16T15:55:24.635Z,41.80
2018-04-16T16:00:27.217Z,42.40
2018-04-16T16:05:31.477Z,41.90
2018-04-16T16:10:34.512Z,42.50
2018-04-16T16:15:37.325Z,41.90
2018-04-16T16:20:41.357Z,41.90
2018-04-16T16:25:43.950Z,41.90
2018-04-16T16:30:46.612Z,41.80
2018-04-16T16:35:49.447Z,41.90
2018-04-16T16:40:52.104Z,41.90
2018-04-16T16:45:55.623Z,41.90
2018-04-16T16:50:58.332Z,42.00
2018-04-16T16:56:00.855Z,42.00
2018-04-16T17:01:03.529Z,42.00
2018-04-16T17:06:06.092Z,42.00
2018-04-16T17:11:09.517Z,42.00
2018-04-16T17:16:12.088Z,42.00
2018-04-16T17:21:14.613Z,42.60
2018-04-16T17:26:17.362Z,42.10
2018-04-16T17:31:20.326Z,42.10
2018-04-16T17:36:22.862Z,42.10
2018-04-16T17:41:25.499Z,42.10
2018-04-16T17:46:28.078Z,42.10
2018-04-16T17:51:31.369Z,42.20
2018-04-16T17:56:33.922Z,42.10
2018-04-16T18:01:36.470Z,42.20
2018-04-16T18:06:39.805Z,42.20
2018-04-16T18:11:42.339Z,42.20
2018-04-16T18:16:44.980Z,42.20
2018-04-16T18:21:48.290Z,42.30
2018-04-16T18:26:50.802Z,42.20
2018-04-16T18:31:54.067Z,42.20
2018-04-16T18:36:56.623Z,42.30
2018-04-16T18:41:59.628Z,42.30
2018-04-16T18:47:02.176Z,42.30
2018-04-16T18:52:04.694Z,42.30
2018-04-16T18:57:08.463Z,42.30
2018-04-16T19:02:11.077Z,42.30
2018-04-16T19:07:13.666Z,42.20
2018-04-16T19:12:16.853Z,42.30
2018-04-16T19:17:19.462Z,42.30
2018-04-16T19:22:21.986Z,42.30
2018-04-16T19:27:30.331Z,42.30
2018-04-16T19:32:38.528Z,42.30
2018-04-16T19:37:41.047Z,42.30
2018-04-16T19:42:45.204Z,42.30
2018-04-16T19:47:47.782Z,42.20
2018-04-16T19:52:50.295Z,42.30
2018-04-16T19:57:58.600Z,42.30
2018-04-16T20:03:06.936Z,42.30
2018-04-16T20:08:09.489Z,42.30
2018-04-16T20:13:12.113Z,42.40
2018-04-16T20:18:14.680Z,42.30
2018-04-16T20:23:17.362Z,42.30
2018-04-16T20:28:20.064Z,42.30
2018-04-16T20:33:22.653Z,42.30
2018-04-16T20:38:25.253Z,42.40
2018-04-16T20:43:27.828Z,42.40
2018-04-16T20:48:30.506Z,42.40
2018-04-16T20:53:33.215Z,42.40
2018-04-16T20:58:35.976Z,42.40
2018-04-16T21:03:38.588Z,42.50
2018-04-16T21:08:42.025Z,42.50
2018-04-16T21:13:44.648Z,42.40
2018-04-16T21:18:47.288Z,42.40
2018-04-16T21:23:49.937Z,42.40
2018-04-16T21:28:52.521Z,42.40
2018-04-16T21:33:55.528Z,42.50
2018-04-16T21:38:58.126Z,42.50
2018-04-16T21:44:00.692Z,42.50
2018-04-16T21:49:03.302Z,42.50
2018-04-16T21:54:05.829Z,42.50
2018-04-16T21:59:08.495Z,42.50
2018-04-16T22:04:11.015Z,42.50
2018-04-16T22:09:13.655Z,42.50
2018-04-16T22:14:16.944Z,42.60
2018-04-16T22:19:19.534Z,42.40
2018-04-16T22:24:22.142Z,42.50
2018-04-16T22:29:24.848Z,42.50
2018-04-16T22:34:27.426Z,42.50
2018-04-16T22:39:30.694Z,42.50
2018-04-16T22:44:34.118Z,42.50
2018-04-16T22:49:36.621Z,42.50
2018-04-16T22:54:39.199Z,42.50
2018-04-16T22:59:41.765Z,42.60
2018-04-16T23:04:45.584Z,42.50
2018-04-16T23:09:49.649Z,42.50
2018-04-16T23:14:53.016Z,42.50
2018-04-16T23:19:55.591Z,42.50
2018-04-16T23:24:58.234Z,42.50
2018-04-16T23:30:01.528Z,42.50
2018-04-16T23:35:04.380Z,42.50
2018-04-16T23:40:07.122Z,42.50
2018-04-16T23:45:09.673Z,42.50
2018-04-16T23:50:12.532Z,42.50
2018-04-16T23:55:15.172Z,42.50
